createdAt,value
2018-11-20T00:00:59.325Z,92275.44
2018-11-20T00:04:25.873Z,92277.26
2018-11-20T00:07:50.117Z,92284.66
2018-11-20T00:11:07.217Z,92291.22
2018-11-20T00:14:25.271Z,92288.91
2018-11-20T00:17:52.179Z,92286.42
2018-11-20T00:21:10.569Z,92268.87
2018-11-20T00:24:22.498Z,92271.08
2018-11-20T00:27:34.465Z,92268.53
2018-11-20T00:30:46.215Z,92286.31
2018-11-20T00:34:01.036Z,92283.28
2018-11-20T00:37:10.108Z,92282.56
2018-11-20T00:40:15.358Z,92286.64
2018-11-20T00:43:33.506Z,92288.02
2018-11-20T00:46:40.847Z,92283.83
2018-11-20T00:49:50.462Z,92289.79
2018-11-20T00:53:14.244Z,92287.47
2018-11-20T00:56:52.477Z,92281.67
2018-11-20T00:59:56.227Z,92289.30
2018-11-20T01:03:05.316Z,92294.70
2018-11-20T01:06:32.864Z,92296.36
2018-11-20T01:09:57.881Z,92307.73
2018-11-20T01:13:05.842Z,92311.05
2018-11-20T01:16:13.165Z,92296.58
2018-11-20T01:19:27.958Z,92298.23
2018-11-20T01:22:39.871Z,92282.22
2018-11-20T01:25:54.911Z,92279.41
2018-11-20T01:29:06.015Z,92270.25
2018-11-20T01:32:13.184Z,92277.15
2018-11-20T01:35:19.933Z,92268.38
2018-11-20T01:38:25.964Z,92264.89
2018-11-20T01:41:43.361Z,92261.69
2018-11-20T01:45:04.034Z,92263.13
2018-11-20T01:48:12.779Z,92270.73
2018-11-20T01:51:20.320Z,92258.86
2018-11-20T01:54:34.907Z,92262.90
2018-11-20T01:57:36.981Z,92267.03
2018-11-20T02:00:44.611Z,92271.84
2018-11-20T02:03:53.342Z,92265.22
2018-11-20T02:07:04.501Z,92263.89
2018-11-20T02:10:22.224Z,92254.91
2018-11-20T02:14:05.087Z,92253.30
2018-11-20T02:17:28.681Z,92269.85
2018-11-20T02:20:32.512Z,92264.29
2018-11-20T02:23:33.002Z,92253.64
2018-11-20T02:26:40.462Z,92266.88
2018-11-20T02:29:48.470Z,92271.52
2018-11-20T02:33:06.571Z,92267.09
2018-11-20T02:36:12.716Z,92280.70
2018-11-20T02:39:26.705Z,92273.55
2018-11-20T02:42:29.321Z,92266.44
2018-11-20T02:45:47.044Z,92253.29
2018-11-20T02:49:01.665Z,92262.98
2018-11-20T02:52:12.782Z,92280.07
2018-11-20T02:55:36.591Z,92289.07
2018-11-20T02:58:43.818Z,92299.22
2018-11-20T03:02:11.678Z,92305.39
2018-11-20T03:05:38.690Z,92289.92
2018-11-20T03:08:46.534Z,92297.45
2018-11-20T03:11:54.163Z,92301.53
2018-11-20T03:15:03.463Z,92296.36
2018-11-20T03:18:08.755Z,92303.84
2018-11-20T03:21:17.675Z,92314.45
2018-11-20T03:24:26.346Z,92302.20
2018-11-20T03:27:37.718Z,92297.84
2018-11-20T03:31:15.370Z,92308.61
2018-11-20T03:34:25.551Z,92308.80
2018-11-20T03:37:34.732Z,92319.84
2018-11-20T03:40:43.171Z,92313.56
2018-11-20T03:43:50.176Z,92314.11
2018-11-20T03:47:07.528Z,92318.55
2018-11-20T03:50:15.011Z,92294.75
2018-11-20T03:53:15.427Z,92301.22
2018-11-20T03:56:22.687Z,92307.50
2018-11-20T03:59:30.600Z,92322.62
2018-11-20T04:02:39.599Z,92333.75
2018-11-20T04:05:47.066Z,92333.22
2018-11-20T04:09:02.580Z,92316.92
2018-11-20T04:12:14.265Z,92322.95
2018-11-20T04:15:28.491Z,92331.57
2018-11-20T04:18:42.656Z,92337.55
2018-11-20T04:21:41.683Z,92335.03
2018-11-20T04:25:02.516Z,92347.26
2018-11-20T04:28:15.462Z,92334.67
2018-11-20T04:31:59.286Z,92321.17
2018-11-20T04:35:09.437Z,92325.31
2018-11-20T04:38:11.658Z,92323.55
2018-11-20T04:41:29.335Z,92327.17
2018-11-20T04:44:51.872Z,92325.56
2018-11-20T04:47:59.131Z,92329.81
2018-11-20T04:51:13.526Z,92327.28
2018-11-20T04:54:40.811Z,92311.98
2018-11-20T04:57:49.365Z,92326.39
2018-11-20T05:00:56.937Z,92327.93
2018-11-20T05:04:14.813Z,92343.18
2018-11-20T05:07:15.998Z,92345.83
2018-11-20T05:10:25.248Z,92344.27
2018-11-20T05:13:38.306Z,92326.67
2018-11-20T05:16:47.311Z,92333.93
2018-11-20T05:20:01.581Z,92332.91
2018-11-20T05:23:06.048Z,92336.30
2018-11-20T05:26:07.478Z,92343.77
2018-11-20T05:29:25.278Z,92346.05
2018-11-20T05:32:33.820Z,92337.80
2018-11-20T05:35:41.189Z,92330.95
2018-11-20T05:38:59.192Z,92337.30
2018-11-20T05:42:25.990Z,92354.64
2018-11-20T05:45:33.620Z,92359.84
2018-11-20T05:48:41.181Z,92359.69
2018-11-20T05:51:49.310Z,92368.84
2018-11-20T05:54:48.487Z,92368.28
2018-11-20T05:57:49.630Z,92367.84
2018-11-20T06:00:58.535Z,92367.78
2018-11-20T06:04:13.938Z,92369.23
2018-11-20T06:07:25.695Z,92366.63
2018-11-20T06:10:33.225Z,92367.78
2018-11-20T06:13:44.817Z,92372.42
2018-11-20T06:17:02.632Z,92371.59
2018-11-20T06:20:10.038Z,92367.23
2018-11-20T06:23:17.743Z,92373.31
2018-11-20T06:26:26.503Z,92382.64
2018-11-20T06:29:34.053Z,92391.25
2018-11-20T06:32:43.928Z,92387.95
2018-11-20T06:35:46.561Z,92383.64
2018-11-20T06:38:53.234Z,92382.59
2018-11-20T06:42:04.931Z,92387.36
2018-11-20T06:45:12.721Z,92386.56
2018-11-20T06:48:27.254Z,92381.70
2018-11-20T06:51:34.594Z,92384.25
2018-11-20T06:54:42.750Z,92384.42
2018-11-20T06:57:57.698Z,92375.56
2018-11-20T07:01:05.879Z,92386.55
2018-11-20T07:04:22.368Z,92387.13
2018-11-20T07:07:29.830Z,92390.55
2018-11-20T07:10:37.557Z,92391.81
2018-11-20T07:13:47.240Z,92394.63
2018-11-20T07:17:03.182Z,92393.91
2018-11-20T07:20:10.557Z,92394.63
2018-11-20T07:23:31.314Z,92393.52
2018-11-20T07:26:48.740Z,92382.80
2018-11-20T07:30:00.313Z,92386.37
2018-11-20T07:33:05.642Z,92382.82
2018-11-20T07:36:13.609Z,92381.78
2018-11-20T07:39:25.437Z,92395.63
2018-11-20T07:42:37.172Z,92391.00
2018-11-20T07:46:00.839Z,92392.22
2018-11-20T07:49:10.212Z,92385.91
2018-11-20T07:52:18.693Z,92374.42
2018-11-20T07:55:27.745Z,92370.54
2018-11-20T07:58:42.992Z,92373.86
2018-11-20T08:01:55.400Z,92377.31
2018-11-20T08:04:54.530Z,92372.75
2018-11-20T08:08:08.557Z,92376.23
2018-11-20T08:11:16.461Z,92390.81
2018-11-20T08:14:25.584Z,92391.34
2018-11-20T08:17:34.549Z,92391.08
2018-11-20T08:20:54.778Z,92394.39
2018-11-20T08:24:03.736Z,92402.99
2018-11-20T08:27:24.668Z,92397.87
2018-11-20T08:30:33.812Z,92407.30
2018-11-20T08:34:00.220Z,92402.50
2018-11-20T08:37:08.040Z,92408.20
2018-11-20T08:40:16.902Z,92412.73
2018-11-20T08:43:31.784Z,92401.04
2018-11-20T08:46:31.926Z,92402.08
2018-11-20T08:49:39.655Z,92407.44
2018-11-20T08:52:47.333Z,92419.88
2018-11-20T08:55:54.530Z,92418.32
2018-11-20T08:59:01.875Z,92414.88
2018-11-20T09:02:10.961Z,92416.38
2018-11-20T09:05:19.389Z,92428.52
2018-11-20T09:08:39.696Z,92416.81
2018-11-20T09:12:06.722Z,92411.88
2018-11-20T09:15:27.692Z,92409.47
2018-11-20T09:18:35.062Z,92403.80
2018-11-20T09:21:47.071Z,92396.78
2018-11-20T09:24:51.372Z,92384.97
2018-11-20T09:28:02.852Z,92382.70
2018-11-20T09:31:11.549Z,92389.66
2018-11-20T09:34:23.035Z,92378.33
2018-11-20T09:37:40.551Z,92378.09
2018-11-20T09:40:55.643Z,92378.94
2018-11-20T09:44:00.961Z,92372.78
2018-11-20T09:47:08.766Z,92373.80
2018-11-20T09:50:08.341Z,92376.88
2018-11-20T09:53:16.241Z,92371.34
2018-11-20T09:56:22.960Z,92364.27
2018-11-20T09:59:40.337Z,92358.53
2018-11-20T10:02:48.078Z,92352.83
2018-11-20T10:06:12.261Z,92356.19
2018-11-20T10:09:19.556Z,92339.09
2018-11-20T10:12:45.852Z,92339.52
2018-11-20T10:16:12.681Z,92336.11
2018-11-20T10:19:24.466Z,92331.63
2018-11-20T10:22:31.827Z,92330.91
2018-11-20T10:25:45.674Z,92328.73
2018-11-20T10:28:52.540Z,92327.64
2018-11-20T10:32:18.976Z,92331.91
2018-11-20T10:35:29.076Z,92325.19
2018-11-20T10:38:46.219Z,92311.92
2018-11-20T10:42:00.568Z,92309.27
2018-11-20T10:45:09.007Z,92314.28
2018-11-20T10:48:13.304Z,92303.73
2018-11-20T10:51:23.663Z,92308.11
2018-11-20T10:54:41.212Z,92313.25
2018-11-20T10:57:55.982Z,92310.89
2018-11-20T11:01:03.441Z,92302.61
2018-11-20T11:04:18.188Z,92303.64
2018-11-20T11:07:25.690Z,92299.61
2018-11-20T11:10:34.391Z,92303.20
2018-11-20T11:13:55.304Z,92284.86
2018-11-20T11:17:12.473Z,92296.31
2018-11-20T11:20:17.506Z,92290.06
2018-11-20T11:23:35.500Z,92298.65
2018-11-20T11:26:54.580Z,92270.04
2018-11-20T11:30:06.346Z,92275.80
2018-11-20T11:33:24.269Z,92282.25
2018-11-20T11:36:39.120Z,92274.17
2018-11-20T11:39:46.550Z,92286.03
2018-11-20T11:42:54.232Z,92276.61
2018-11-20T11:46:03.514Z,92268.34
2018-11-20T11:49:21.602Z,92273.44
2018-11-20T11:52:39.148Z,92259.44
2018-11-20T11:55:46.854Z,92262.92
2018-11-20T11:58:58.486Z,92256.17
2018-11-20T12:05:30.366Z,92263.84
2018-11-20T12:08:37.592Z,92270.70
2018-11-20T12:11:54.937Z,92256.58
2018-11-20T12:14:55.512Z,92252.48
2018-11-20T12:18:19.433Z,92256.48
2018-11-20T12:21:40.661Z,92255.45
2018-11-20T12:24:49.363Z,92245.02
2018-11-20T12:27:51.613Z,92263.73
2018-11-20T12:30:59.075Z,92269.65
2018-11-20T12:35:13.618Z,92261.19
2018-11-20T12:38:21.116Z,92257.19
2018-11-20T12:41:28.630Z,92263.94
2018-11-20T12:44:36.659Z,92245.43
2018-11-20T12:48:03.861Z,92241.87
2018-11-20T12:51:09.515Z,92246.56
2018-11-20T12:54:20.705Z,92246.51
2018-11-20T12:57:27.526Z,92253.38
2018-11-20T13:00:47.921Z,92246.13
2018-11-20T13:03:54.738Z,92253.21
2018-11-20T13:07:08.994Z,92251.77
2018-11-20T13:10:29.010Z,92242.86
2018-11-20T13:13:39.928Z,92248.39
2018-11-20T13:16:50.885Z,92246.16
2018-11-20T13:19:40.900Z,92234.31
2018-11-20T13:22:33.562Z,92249.83
2018-11-20T13:28:10.322Z,92242.86
2018-11-20T13:31:09.068Z,92243.89
2018-11-20T13:34:07.374Z,92232.77
2018-11-20T13:36:57.165Z,92241.45
2018-11-20T13:39:58.704Z,92245.23
2018-11-20T13:43:01.780Z,92227.13
2018-11-20T13:45:54.509Z,92230.94
2018-11-20T13:48:42.860Z,92224.70
2018-11-20T13:51:31.842Z,92216.30
2018-11-20T13:54:32.385Z,92222.53
2018-11-20T13:57:40.562Z,92222.22
2018-11-20T14:00:31.087Z,92207.33
2018-11-20T14:03:31.403Z,92214.99
2018-11-20T14:06:23.842Z,92205.18
2018-11-20T14:09:13.623Z,92219.16
2018-11-20T14:12:14.857Z,92225.31
2018-11-20T14:15:03.314Z,92220.41
2018-11-20T14:17:51.844Z,92217.21
2018-11-20T14:20:39.848Z,92208.45
2018-11-20T14:23:35.183Z,92219.69
2018-11-20T14:26:30.766Z,92236.64
2018-11-20T14:29:18.653Z,92229.69
2018-11-20T14:32:08.164Z,92224.93
2018-11-20T14:34:48.338Z,92221.56
2018-11-20T14:37:38.028Z,92204.19
2018-11-20T14:40:39.698Z,92197.98
2018-11-20T14:43:34.867Z,92202.63
2018-11-20T14:46:24.472Z,92184.27
2018-11-20T14:49:25.970Z,92201.33
2018-11-20T14:52:19.716Z,92202.77
2018-11-20T14:57:38.944Z,92199.49
2018-11-20T15:00:30.677Z,92208.70
2018-11-20T15:03:19.316Z,92197.88
2018-11-20T15:06:08.636Z,92200.23
2018-11-20T15:08:56.738Z,92197.77
2018-11-20T15:12:04.283Z,92193.80
2018-11-20T15:14:56.592Z,92197.99
2018-11-20T15:17:58.666Z,92184.50
2018-11-20T15:20:46.981Z,92184.17
2018-11-20T15:23:45.535Z,92184.69
2018-11-20T15:26:36.685Z,92191.44
2018-11-20T15:29:26.309Z,92201.22
2018-11-20T15:32:25.119Z,92205.98
2018-11-20T15:35:29.652Z,92184.44
2018-11-20T15:38:27.934Z,92188.16
2018-11-20T15:41:24.224Z,92178.25
2018-11-20T15:44:12.499Z,92177.25
2018-11-20T15:47:17.217Z,92186.22
2018-11-20T15:50:09.364Z,92185.73
2018-11-20T15:52:57.839Z,92181.31
2018-11-20T15:55:46.075Z,92177.31
2018-11-20T15:58:34.772Z,92188.48
2018-11-20T16:01:23.570Z,92181.40
2018-11-20T16:04:11.763Z,92176.30
2018-11-20T16:07:04.055Z,92179.53
2018-11-20T16:09:51.988Z,92188.41
2018-11-20T16:12:42.915Z,92175.14
2018-11-20T16:15:31.143Z,92187.20
2018-11-20T16:18:32.949Z,92180.98
2018-11-20T16:21:31.202Z,92179.98
2018-11-20T16:24:20.794Z,92162.47
2018-11-20T16:27:16.098Z,92186.08
2018-11-20T16:30:04.588Z,92193.47
2018-11-20T16:33:00.497Z,92188.58
2018-11-20T16:36:03.096Z,92195.94
2018-11-20T16:39:06.733Z,92190.53
2018-11-20T16:41:54.799Z,92179.09
2018-11-20T16:44:39.587Z,92189.81
2018-11-20T16:47:32.046Z,92181.41
2018-11-20T16:50:17.758Z,92187.05
2018-11-20T16:53:15.330Z,92175.09
2018-11-20T16:55:56.014Z,92169.17
2018-11-20T16:58:54.592Z,92172.44
2018-11-20T17:01:48.328Z,92167.74
2018-11-20T17:04:56.397Z,92176.28
2018-11-20T17:07:56.304Z,92178.08
2018-11-20T17:10:54.721Z,92162.22
2018-11-20T17:13:44.354Z,92150.27
2018-11-20T17:16:52.311Z,92144.45
2018-11-20T17:20:00.219Z,92151.70
2018-11-20T17:22:48.791Z,92147.86
2018-11-20T17:25:36.771Z,92156.32
2018-11-20T17:28:25.091Z,92164.34
2018-11-20T17:31:19.841Z,92168.05
2018-11-20T17:34:12.376Z,92176.83
2018-11-20T17:37:11.128Z,92168.16
2018-11-20T17:40:03.640Z,92161.77
2018-11-20T17:42:59.177Z,92147.09
2018-11-20T17:46:06.774Z,92154.54
2018-11-20T17:48:56.458Z,92167.88
2018-11-20T17:51:58.277Z,92179.41
2018-11-20T17:54:53.910Z,92168.32
2018-11-20T17:57:58.852Z,92162.11
2018-11-20T18:00:57.373Z,92154.16
2018-11-20T18:04:04.735Z,92145.77
2018-11-20T18:06:54.376Z,92144.86
2018-11-20T18:09:58.927Z,92151.33
2018-11-20T18:12:58.143Z,92152.80
2018-11-20T18:15:53.996Z,92143.72
2018-11-20T18:18:42.018Z,92148.73
2018-11-20T18:21:37.535Z,92156.08
2018-11-20T18:24:38.698Z,92149.87
2018-11-20T18:27:43.427Z,92141.18
2018-11-20T18:30:42.390Z,92138.52
2018-11-20T18:33:39.833Z,92144.84
2018-11-20T18:36:25.467Z,92144.88
2018-11-20T18:39:23.855Z,92149.16
2018-11-20T18:42:06.980Z,92156.81
2018-11-20T18:44:55.350Z,92146.39
2018-11-20T18:47:44.981Z,92140.46
2018-11-20T18:50:43.593Z,92138.22
2018-11-20T18:53:37.437Z,92137.32
2018-11-20T18:56:36.811Z,92139.21
2018-11-20T18:59:26.740Z,92132.95
2018-11-20T19:02:16.014Z,92142.23
2018-11-20T19:05:16.841Z,92134.11
2018-11-20T19:08:13.414Z,92141.45
2018-11-20T19:11:01.399Z,92158.93
2018-11-20T19:13:51.083Z,92152.52
2018-11-20T19:16:38.957Z,92135.69
2018-11-20T19:19:37.886Z,92139.09
2018-11-20T19:22:26.915Z,92130.64
2018-11-20T19:25:16.632Z,92128.51
2018-11-20T19:28:04.637Z,92125.84
2018-11-20T19:30:50.484Z,92131.98
2018-11-20T19:33:39.165Z,92134.03
2018-11-20T19:36:36.679Z,92137.39
2018-11-20T19:39:42.104Z,92135.16
2018-11-20T19:42:46.668Z,92131.17
2018-11-20T19:45:42.403Z,92119.42
2018-11-20T19:48:30.780Z,92119.84
2018-11-20T19:51:19.192Z,92122.61
2018-11-20T19:54:07.435Z,92123.11
2018-11-20T19:56:55.619Z,92122.98
2018-11-20T19:59:45.743Z,92123.02
2018-11-20T20:02:36.594Z,92116.78
2018-11-20T20:05:27.879Z,92128.63
2018-11-20T20:08:29.882Z,92121.07
2018-11-20T20:11:28.704Z,92114.84
2018-11-20T20:14:18.205Z,92111.97
2018-11-20T20:17:07.076Z,92113.09
2018-11-20T20:20:01.225Z,92110.44
2018-11-20T20:22:42.261Z,92107.38
2018-11-20T20:25:46.971Z,92101.06
2018-11-20T20:28:36.703Z,92089.89
2018-11-20T20:31:30.507Z,92092.45
2018-11-20T20:34:23.183Z,92089.59
2018-11-20T20:37:31.403Z,92089.19
2018-11-20T20:40:24.115Z,92084.31
2018-11-20T20:43:16.734Z,92078.30
2018-11-20T20:46:11.985Z,92071.96
2018-11-20T20:49:16.377Z,92079.22
2018-11-20T20:52:04.445Z,92071.86
2018-11-20T20:55:05.996Z,92070.20
2018-11-20T20:57:49.912Z,92069.50
2018-11-20T21:00:56.578Z,92065.22
2018-11-20T21:04:05.291Z,92067.56
2018-11-20T21:07:31.326Z,92068.88
2018-11-20T21:10:38.502Z,92070.62
2018-11-20T21:13:52.958Z,92069.50
2018-11-20T21:17:16.771Z,92065.52
2018-11-20T21:20:30.342Z,92071.25
2018-11-20T21:23:40.789Z,92075.64
2018-11-20T21:26:58.204Z,92068.80
2018-11-20T21:30:11.749Z,92064.81
2018-11-20T21:33:28.792Z,92050.11
2018-11-20T21:36:35.106Z,92055.73
2018-11-20T21:39:53.612Z,92051.84
2018-11-20T21:43:08.458Z,92044.39
2018-11-20T21:46:28.165Z,92035.51
2018-11-20T21:49:43.739Z,92027.23
2018-11-20T21:52:57.552Z,92021.92
2018-11-20T21:56:04.759Z,92020.80
2018-11-20T21:59:20.186Z,92022.23
2018-11-20T22:02:27.034Z,92029.08
2018-11-20T22:05:35.330Z,92038.37
2018-11-20T22:08:45.980Z,92027.75
2018-11-20T22:12:09.279Z,92008.75
2018-11-20T22:15:29.712Z,92004.87
2018-11-20T22:18:47.110Z,92023.77
2018-11-20T22:21:58.028Z,92015.91
2018-11-20T22:25:14.908Z,92013.66
2018-11-20T22:28:30.026Z,92014.48
2018-11-20T22:31:44.360Z,92026.50
2018-11-20T22:34:51.256Z,92019.36
2018-11-20T22:38:14.579Z,92008.15
2018-11-20T22:41:40.630Z,92005.39
2018-11-20T22:44:57.794Z,91989.87
2018-11-20T22:48:12.983Z,92000.80
2018-11-20T22:51:20.011Z,91976.30
2018-11-20T22:54:30.774Z,91983.13
2018-11-20T22:57:38.396Z,91982.22
2018-11-20T23:00:34.924Z,91992.63
2018-11-20T23:03:41.815Z,91992.43
2018-11-20T23:06:51.794Z,91982.33
2018-11-20T23:09:40.376Z,91987.94
2018-11-20T23:12:29.336Z,91985.69
2018-11-20T23:15:18.563Z,91972.31
2018-11-20T23:18:07.618Z,91983.33
2018-11-20T23:20:56.883Z,91981.61
2018-11-20T23:23:45.586Z,91973.75
2018-11-20T23:26:34.453Z,91972.72
2018-11-20T23:29:23.462Z,91967.12
2018-11-20T23:32:12.702Z,91966.09
2018-11-20T23:35:01.732Z,91969.97
2018-11-20T23:37:50.635Z,91966.70
2018-11-20T23:40:39.639Z,91967.02
2018-11-20T23:43:28.499Z,91953.55
2018-11-20T23:46:17.596Z,91959.66
2018-11-20T23:49:06.480Z,91935.97
2018-11-20T23:51:55.710Z,91933.22
2018-11-20T23:54:44.749Z,91945.26
2018-11-20T23:57:34.338Z,91938.30
